createdAt,value
2017-04-11T08:36:35.587Z,76704
2017-04-11T08:41:35.413Z,72480
2017-04-11T08:46:35.395Z,70304
2017-04-11T08:51:35.350Z,62688
2017-04-11T08:56:35.009Z,65088
2017-04-11T09:01:35.303Z,64480
2017-04-11T09:06:35.285Z,66720
2017-04-11T09:11:35.219Z,13452
2017-04-11T09:16:35.192Z,14580
2017-04-11T09:21:35.162Z,21152
2017-04-11T09:26:35.110Z,18976
2017-04-11T09:31:35.105Z,55264
2017-04-11T09:36:35.036Z,51552
2017-04-11T09:41:35.004Z,23136
2017-04-11T09:46:34.691Z,54080
2017-04-11T09:51:34.730Z,23264
2017-04-11T09:56:34.935Z,20832
2017-04-11T10:01:34.845Z,19744
2017-04-11T10:06:34.509Z,17600
2017-04-11T10:11:34.491Z,18464
2017-04-11T10:16:34.713Z,15508
2017-04-11T10:21:34.690Z,9664
2017-04-11T10:26:34.627Z,10728
2017-04-11T10:31:34.616Z,13356
2017-04-11T10:36:34.285Z,14824
2017-04-11T10:41:34.515Z,18752
2017-04-11T10:46:34.459Z,14252
2017-04-11T10:51:34.421Z,28512
2017-04-11T10:56:34.371Z,24416
2017-04-11T11:01:34.317Z,9804
2017-04-11T11:06:34.273Z,3828
2017-04-11T11:11:34.277Z,5060
2017-04-11T11:16:34.296Z,11728
2017-04-11T11:21:34.150Z,5976
2017-04-11T11:26:33.857Z,2424
2017-04-11T11:31:34.061Z,2616
2017-04-11T11:36:33.991Z,2488
2017-04-11T11:41:33.648Z,3020
2017-04-11T11:46:33.647Z,6040
2017-04-11T11:51:33.840Z,5592
2017-04-11T11:56:33.806Z,11072
2017-04-11T12:01:33.746Z,4508
2017-04-11T12:06:33.730Z,5252
2017-04-11T12:11:33.665Z,6412
2017-04-11T12:16:33.662Z,8400
2017-04-11T12:21:33.565Z,7872
2017-04-11T12:26:33.528Z,8312
2017-04-11T12:31:33.470Z,6164
2017-04-11T12:36:33.425Z,4916
2017-04-11T12:41:33.070Z,6928
2017-04-11T12:46:33.028Z,6804
2017-04-11T12:51:33.271Z,5340
2017-04-11T12:56:33.308Z,4420
2017-04-11T13:01:33.182Z,7880
2017-04-11T13:06:33.147Z,5872
2017-04-11T13:11:33.096Z,6704
2017-04-11T13:16:32.972Z,4876
2017-04-11T13:21:33.005Z,5916
2017-04-11T13:26:32.951Z,5972
2017-04-11T13:31:32.590Z,5808
2017-04-11T13:36:32.860Z,7384
2017-04-11T13:41:32.837Z,7496
2017-04-11T13:46:32.849Z,6936
2017-04-11T13:51:32.763Z,7388
2017-04-11T13:56:32.642Z,8808
2017-04-11T14:01:32.611Z,8428
2017-04-11T14:06:32.561Z,7848
2017-04-11T14:11:32.505Z,7748
2017-04-11T14:16:32.465Z,6636
2017-04-11T14:21:32.425Z,5824
2017-04-11T14:26:32.416Z,4504
2017-04-11T14:31:32.348Z,3728
2017-04-11T14:36:32.277Z,4784
2017-04-11T14:41:32.211Z,6184
2017-04-11T14:46:32.170Z,6000
2017-04-11T14:51:32.129Z,5852
2017-04-11T14:56:31.779Z,5644
2017-04-11T15:01:31.719Z,5348
2017-04-11T15:06:31.675Z,5776
2017-04-11T15:11:31.636Z,5340
2017-04-11T15:16:31.894Z,4232
2017-04-11T15:21:31.528Z,3892
2017-04-11T15:26:31.470Z,4172
2017-04-11T15:31:31.744Z,3740
2017-04-11T15:36:31.716Z,3372
2017-04-11T15:41:31.652Z,2912
2017-04-11T15:46:31.613Z,2100
2017-04-11T15:51:31.580Z,1848
2017-04-11T15:56:31.041Z,1728
2017-04-11T16:01:31.448Z,1768
2017-04-11T16:06:31.596Z,2280
2017-04-11T16:11:31.024Z,2348
2017-04-11T16:16:31.257Z,2136
2017-04-11T16:21:31.219Z,1948
2017-04-11T16:26:31.170Z,2044
2017-04-11T16:31:31.103Z,2136
2017-04-11T16:36:31.132Z,2192
2017-04-11T16:41:30.988Z,2288
2017-04-11T16:46:30.911Z,2040
2017-04-11T16:51:30.849Z,1708
2017-04-11T16:56:30.772Z,1688
2017-04-11T17:01:30.715Z,1640
2017-04-11T17:06:30.689Z,1680
2017-04-11T17:11:30.728Z,1676
2017-04-11T17:16:30.535Z,1516
2017-04-11T17:21:29.884Z,1248
2017-04-11T17:26:30.379Z,1252
2017-04-11T17:31:30.322Z,1068
2017-04-11T17:36:29.950Z,1036
2017-04-11T17:41:30.252Z,1088
2017-04-11T17:46:30.243Z,964
2017-04-11T17:51:30.085Z,808
2017-04-11T17:56:29.384Z,452
2017-04-11T18:01:29.638Z,304
2017-04-11T18:06:29.866Z,264
2017-04-11T18:11:29.787Z,196
2017-04-11T18:16:29.730Z,140
2017-04-11T18:21:29.667Z,92
2017-04-11T18:26:29.311Z,52
2017-04-11T18:31:29.553Z,36
2017-04-11T18:36:29.467Z,16
2017-04-11T18:41:29.399Z,8
2017-04-11T18:46:29.379Z,4
2017-04-11T18:51:29.021Z,0
2017-04-11T18:56:29.216Z,0
2017-04-11T19:01:29.384Z,0
2017-04-11T19:06:28.779Z,0
2017-04-11T19:11:29.131Z,0
2017-04-11T19:16:28.977Z,0
2017-04-11T19:21:28.934Z,0
2017-04-11T19:26:28.868Z,0
2017-04-11T19:31:28.780Z,0
2017-04-11T19:36:28.670Z,0
2017-04-11T19:41:28.618Z,0
2017-04-11T19:46:28.558Z,0
2017-04-11T19:51:28.173Z,0
2017-04-11T19:56:27.798Z,0
2017-04-11T20:01:28.376Z,0
2017-04-11T20:06:28.265Z,0
2017-04-11T20:11:28.201Z,0
2017-04-11T20:16:27.857Z,0
2017-04-11T20:21:28.061Z,0
2017-04-11T20:26:27.995Z,0
2017-04-11T20:31:27.956Z,0
2017-04-11T20:36:27.910Z,0
2017-04-11T20:41:27.798Z,0
2017-04-11T20:46:27.744Z,0
2017-04-11T20:51:27.664Z,0
2017-04-11T20:56:27.305Z,0
2017-04-11T21:01:27.527Z,0
2017-04-11T21:06:27.472Z,0
2017-04-11T21:11:27.496Z,0
2017-04-11T21:16:27.321Z,0
